Time;durP1;ratioP1;P1;durP2;ratioP2;P2;SDS_P1;SDS_P2;PMS_P1;PMS_P2;Temp;Humidity;BMP_temperature;BMP_pressure;BME280_temperature;BME280_humidity;BME280_pressure;Samples;Min_cycle;Max_cycle;Signal;HPM_P1;HPM_P2
2023/03/04 00:02:06;;;;;;;24.15;10.60;;;22.10;40.90;;;;;;5067421;28;20098;-67
2023/03/04 00:04:32;;;;;;;4.93;2.40;;;21.90;40.70;;;;;;5068484;28;20075;-67
2023/03/04 00:06:59;;;;;;;19.02;11.18;;;21.80;40.80;;;;;;5065589;28;21701;-69
2023/03/04 00:09:25;;;;;;;14.32;7.03;;;21.70;40.90;;;;;;5066605;28;20129;-67
2023/03/04 00:11:51;;;;;;;16.45;4.18;;;21.60;40.90;;;;;;5068488;28;20084;-69
2023/03/04 00:14:18;;;;;;;15.38;2.95;;;21.60;40.90;;;;;;5067894;28;20071;-68
2023/03/04 00:16:44;;;;;;;9.18;3.38;;;21.50;41.00;;;;;;5068922;28;20571;-67
2023/03/04 00:19:11;;;;;;;10.15;3.25;;;21.30;41.30;;;;;;5068464;28;20212;-68
2023/03/04 00:21:37;;;;;;;95.45;8.30;;;21.00;41.60;;;;;;5068098;28;20412;-68
2023/03/04 00:24:04;;;;;;;15.98;4.10;;;21.10;41.90;;;;;;5070023;28;20082;-67
2023/03/04 00:26:30;;;;;;;8.75;3.55;;;21.30;41.80;;;;;;5068842;28;20465;-71
2023/03/04 00:28:57;;;;;;;12.65;3.80;;;21.40;41.90;;;;;;5068689;28;20071;-66
2023/03/04 00:31:23;;;;;;;12.30;3.20;;;21.30;42.00;;;;;;5068355;28;20149;-66
2023/03/04 00:33:50;;;;;;;11.23;3.05;;;21.30;42.40;;;;;;5068138;28;20137;-71
2023/03/04 00:36:16;;;;;;;8.05;3.05;;;21.30;43.10;;;;;;5070812;28;20078;-69
2023/03/04 00:38:42;;;;;;;10.75;3.88;;;21.20;42.70;;;;;;5072487;28;20064;-70
2023/03/04 00:41:09;;;;;;;11.88;3.65;;;21.10;42.50;;;;;;5072956;28;20146;-65
2023/03/04 00:43:35;;;;;;;24.55;4.93;;;21.00;42.50;;;;;;5072092;28;20094;-67
2023/03/04 00:46:02;;;;;;;17.13;3.80;;;21.00;43.30;;;;;;5072669;28;20063;-67
2023/03/04 00:48:28;;;;;;;14.48;4.10;;;20.90;42.90;;;;;;5072146;28;20472;-67
2023/03/04 00:50:54;;;;;;;8.77;3.60;;;20.90;43.40;;;;;;5072691;28;20068;-68
2023/03/04 00:53:22;;;;;;;24.65;4.93;;;20.60;43.30;;;;;;5073008;28;20073;-67
2023/03/04 00:55:49;;;;;;;17.52;5.07;;;20.60;43.70;;;;;;5071641;28;20070;-67
2023/03/04 00:58:16;;;;;;;12.95;3.40;;;20.70;44.10;;;;;;5070604;28;20074;-68
2023/03/04 01:00:42;;;;;;;15.07;4.22;;;20.60;43.70;;;;;;5071423;28;20601;-70
2023/03/04 01:03:08;;;;;;;11.25;3.10;;;20.60;43.60;;;;;;5094375;22;20130;-66
2023/03/04 01:05:35;;;;;;;10.57;3.65;;;20.60;44.10;;;;;;5091088;28;20105;-67
2023/03/04 01:08:02;;;;;;;11.05;4.10;;;20.50;44.50;;;;;;5083170;28;20086;-71
2023/03/04 01:10:28;;;;;;;15.05;10.57;;;20.50;45.00;;;;;;5073138;28;20159;-68
2023/03/04 01:12:55;;;;;;;10.25;3.20;;;20.30;45.20;;;;;;5074007;28;20528;-68
2023/03/04 01:15:21;;;;;;;17.08;4.05;;;20.20;45.50;;;;;;5074376;28;20080;-68
2023/03/04 01:17:48;;;;;;;15.07;3.80;;;20.00;45.50;;;;;;5074361;28;20451;-68
2023/03/04 01:20:15;;;;;;;11.20;3.85;;;20.10;45.70;;;;;;5071332;28;20496;-68
2023/03/04 01:22:41;;;;;;;11.68;3.72;;;20.00;46.40;;;;;;5074290;28;21453;-68
2023/03/04 01:25:08;;;;;;;24.23;21.70;;;19.90;46.40;;;;;;5073579;28;20437;-68
2023/03/04 01:27:34;;;;;;;12.88;3.75;;;19.70;47.50;;;;;;5073130;28;20464;-66
2023/03/04 01:30:01;;;;;;;13.18;4.05;;;19.70;48.10;;;;;;5074836;28;20147;-67
2023/03/04 01:32:27;;;;;;;13.07;4.30;;;19.50;48.20;;;;;;5075906;28;20066;-69
2023/03/04 01:34:53;;;;;;;15.60;5.03;;;19.50;48.70;;;;;;5075035;28;20483;-69
2023/03/04 01:37:20;;;;;;;22.13;5.65;;;19.40;48.90;;;;;;5075085;28;20076;-62
2023/03/04 01:39:46;;;;;;;426.70;21.80;;;19.30;49.10;;;;;;5075660;28;20117;-68
2023/03/04 01:42:25;;;;;;;80.45;7.35;;;19.30;50.00;;;;;;5075266;28;20107;-69
2023/03/04 01:44:52;;;;;;;17.77;5.50;;;19.10;49.80;;;;;;5071745;28;21712;-67
2023/03/04 01:47:21;;;;;;;16.63;4.75;;;19.00;50.30;;;;;;5072351;28;20068;-68
2023/03/04 01:49:53;;;;;;;65.15;8.10;;;19.00;50.30;;;;;;5075263;28;20151;-70
2023/03/04 01:52:21;;;;;;;28.70;6.35;;;18.90;50.60;;;;;;5073848;28;20064;-71
2023/03/04 01:54:48;;;;;;;21.25;5.55;;;18.80;50.80;;;;;;5077184;28;20075;-64
2023/03/04 01:57:24;;;;;;;215.85;12.70;;;18.80;50.90;;;;;;5074368;28;20078;-70
2023/03/04 02:00:19;;;;;;;124.45;9.32;;;18.70;51.60;;;;;;5078287;28;20435;-66
2023/03/04 02:02:49;;;;;;;67.35;8.13;;;18.60;52.20;;;;;;5048243;28;20113;-67
2023/03/04 02:05:15;;;;;;;49.47;7.35;;;18.50;52.40;;;;;;5070810;28;20175;-68
2023/03/04 02:07:42;;;;;;;173.90;11.27;;;18.40;52.00;;;;;;5072525;28;20083;-69
2023/03/04 02:10:10;;;;;;;66.40;11.60;;;18.40;52.20;;;;;;5074308;28;20425;-67
2023/03/04 02:12:36;;;;;;;29.67;7.00;;;18.30;52.50;;;;;;5072027;28;20078;-70
2023/03/04 02:15:03;;;;;;;32.00;6.72;;;18.20;53.20;;;;;;5071941;28;20076;-68
2023/03/04 02:17:32;;;;;;;193.63;11.98;;;18.10;52.90;;;;;;5071546;28;20072;-68
2023/03/04 02:20:01;;;;;;;251.10;14.57;;;18.10;52.80;;;;;;5072849;28;20064;-68
2023/03/04 02:22:27;;;;;;;1561.45;106.65;;;18.00;53.10;;;;;;5073155;28;20175;-67
2023/03/04 02:25:05;;;;;;;650.50;46.40;;;18.00;53.50;;;;;;5070374;28;20088;-68
2023/03/04 02:27:31;;;;;;;368.85;26.13;;;17.90;53.80;;;;;;5072892;28;20118;-67
2023/03/04 02:29:58;;;;;;;280.17;20.45;;;17.80;54.60;;;;;;5073443;28;20076;-71
2023/03/04 02:32:24;;;;;;;126.80;13.35;;;17.70;54.60;;;;;;5074037;28;20121;-70
2023/03/04 02:34:51;;;;;;;72.65;10.15;;;17.60;55.00;;;;;;5053643;28;20082;-68
2023/03/04 02:37:19;;;;;;;42.30;9.65;;;17.50;55.00;;;;;;5068665;28;20095;-71
2023/03/04 02:39:47;;;;;;;35.88;10.02;;;17.50;55.10;;;;;;5072488;28;20084;-72
2023/03/04 02:42:14;;;;;;;24.95;8.85;;;17.40;55.20;;;;;;5071441;28;20122;-71
2023/03/04 02:44:45;;;;;;;36.30;8.98;;;17.30;55.50;;;;;;5074455;28;20601;-67
2023/03/04 02:47:12;;;;;;;17.52;7.40;;;17.20;55.30;;;;;;5073352;28;20072;-72
2023/03/04 02:49:40;;;;;;;25.13;8.35;;;17.20;55.30;;;;;;5071153;28;20118;-69
2023/03/04 02:52:16;;;;;;;22.52;8.52;;;17.10;55.70;;;;;;5072009;28;20066;-68
2023/03/04 02:54:43;;;;;;;24.90;8.27;;;17.00;55.60;;;;;;5073541;28;20072;-69
2023/03/04 02:57:11;;;;;;;27.85;9.02;;;16.90;55.80;;;;;;5072834;28;20078;-69
2023/03/04 02:59:39;;;;;;;30.98;9.00;;;16.80;56.00;;;;;;5069950;28;20536;-70
2023/03/04 03:02:06;;;;;;;27.38;8.88;;;16.80;56.30;;;;;;5071519;28;20144;-70
2023/03/04 03:04:35;;;;;;;32.47;10.48;;;16.80;57.00;;;;;;5073254;28;20108;-68
2023/03/04 03:07:01;;;;;;;34.53;11.73;;;16.70;56.80;;;;;;5055226;28;20101;-72
2023/03/04 03:09:28;;;;;;;28.77;11.98;;;16.70;56.90;;;;;;5072896;28;20118;-68
2023/03/04 03:11:54;;;;;;;30.20;12.07;;;16.60;56.90;;;;;;5073787;28;20067;-69
2023/03/04 03:14:20;;;;;;;29.90;11.07;;;16.60;57.00;;;;;;5053992;28;20469;-68
2023/03/04 03:16:47;;;;;;;30.55;11.40;;;16.50;57.30;;;;;;5071693;28;20076;-69
2023/03/04 03:19:13;;;;;;;27.73;10.65;;;16.40;57.60;;;;;;5073978;28;20087;-71
2023/03/04 03:21:40;;;;;;;35.53;11.27;;;16.40;57.80;;;;;;5070499;28;20079;-68
2023/03/04 03:24:07;;;;;;;20.25;10.43;;;16.30;58.00;;;;;;5073027;28;20083;-69
2023/03/04 03:26:33;;;;;;;38.35;10.85;;;16.30;58.40;;;;;;5072024;28;20153;-68
2023/03/04 03:29:00;;;;;;;34.50;11.43;;;16.30;58.80;;;;;;5070532;28;20086;-69
2023/03/04 03:31:26;;;;;;;30.35;10.10;;;16.20;58.80;;;;;;5054952;28;21477;-70
2023/03/04 03:33:52;;;;;;;29.27;11.10;;;16.20;58.80;;;;;;5071946;28;20104;-67
2023/03/04 03:36:19;;;;;;;40.95;10.85;;;16.20;59.40;;;;;;5070567;28;21086;-68
2023/03/04 03:38:45;;;;;;;29.65;9.80;;;16.10;59.40;;;;;;5069584;28;20075;-68
2023/03/04 03:41:12;;;;;;;28.30;10.02;;;16.10;59.70;;;;;;5071664;28;20175;-73
2023/03/04 03:43:38;;;;;;;35.80;10.80;;;16.10;60.00;;;;;;5073521;28;20075;-68
2023/03/04 03:46:05;;;;;;;31.15;10.55;;;16.00;60.30;;;;;;5071817;28;20076;-69
2023/03/04 03:48:31;;;;;;;54.90;21.30;;;16.00;61.10;;;;;;5053704;28;20086;-70
2023/03/04 03:50:58;;;;;;;67.65;33.47;;;15.90;61.60;;;;;;5070625;28;20444;-69
2023/03/04 03:53:24;;;;;;;54.33;22.80;;;15.90;61.80;;;;;;5072862;28;20078;-67
2023/03/04 03:55:50;;;;;;;40.67;14.60;;;15.90;62.10;;;;;;5072824;28;20171;-69
2023/03/04 03:58:17;;;;;;;47.55;15.57;;;15.90;61.30;;;;;;5073975;28;20076;-69
2023/03/04 04:00:43;;;;;;;44.85;15.05;;;15.90;60.90;;;;;;5071637;28;20068;-68
2023/03/04 04:03:14;;;;;;;55.63;16.42;;;15.90;61.40;;;;;;5071581;28;20599;-69
2023/03/04 04:05:41;;;;;;;45.58;15.00;;;15.80;62.00;;;;;;5070478;28;20075;-71
2023/03/04 04:08:11;;;;;;;40.10;14.88;;;15.70;62.30;;;;;;5072447;28;20088;-68
2023/03/04 04:10:37;;;;;;;42.22;14.93;;;15.70;62.80;;;;;;5072416;28;20079;-69
2023/03/04 04:13:04;;;;;;;51.90;15.02;;;15.60;63.00;;;;;;5071837;28;20076;-67
2023/03/04 04:15:30;;;;;;;48.22;14.73;;;15.60;63.50;;;;;;5071572;28;20146;-69
2023/03/04 04:17:56;;;;;;;54.92;15.20;;;15.50;64.10;;;;;;5072939;28;20063;-68
2023/03/04 04:20:23;;;;;;;51.78;15.82;;;15.40;63.60;;;;;;5072449;28;20182;-67
2023/03/04 04:22:49;;;;;;;63.40;16.00;;;15.40;64.20;;;;;;5071887;28;20099;-67
2023/03/04 04:25:16;;;;;;;46.28;14.70;;;15.30;64.60;;;;;;5072951;28;20175;-66
2023/03/04 04:27:42;;;;;;;58.85;16.77;;;15.30;64.70;;;;;;5073111;28;20076;-66
2023/03/04 04:30:09;;;;;;;52.85;17.85;;;15.20;64.60;;;;;;5072378;28;20068;-68
2023/03/04 04:32:36;;;;;;;50.83;14.63;;;15.30;65.00;;;;;;5073017;28;20077;-67
2023/03/04 04:35:02;;;;;;;;;;;15.30;65.20;;;;;;5075266;28;20066;-68
2023/03/04 04:37:28;;;;;;;158.65;25.25;;;15.40;64.90;;;;;;5070790;28;19999;-69
2023/03/04 04:39:54;;;;;;;;;;;15.30;65.10;;;;;;5069670;28;20075;-69
2023/03/04 04:42:21;;;;;;;118.85;28.20;;;15.30;64.10;;;;;;5070212;28;19964;-72
2023/03/04 04:44:48;;;;;;;100.85;30.42;;;15.30;63.90;;;;;;5069708;28;20092;-72
2023/03/04 04:47:15;;;;;;;125.57;32.75;;;15.30;63.30;;;;;;5068829;28;20121;-71
2023/03/04 04:49:41;;;;;;;166.23;35.67;;;15.30;62.50;;;;;;5071745;28;20150;-70
2023/03/04 04:52:08;;;;;;;166.25;35.67;;;15.30;62.90;;;;;;5070052;28;20075;-71
2023/03/04 04:54:34;;;;;;;;;;;15.30;63.20;;;;;;5071791;28;20159;-68
2023/03/04 04:57:00;;;;;;;116.70;30.88;;;15.30;63.30;;;;;;5070054;28;20050;-67
2023/03/04 04:59:26;;;;;;;126.47;31.65;;;15.20;63.10;;;;;;5068463;28;20076;-66
2023/03/04 05:01:53;;;;;;;129.65;32.95;;;15.20;64.10;;;;;;5070188;28;20082;-67
2023/03/04 05:04:19;;;;;;;;;;;15.20;64.40;;;;;;5072972;28;20108;-66
2023/03/04 05:06:45;;;;;;;132.35;31.33;;;15.10;64.60;;;;;;5068955;28;19972;-67
2023/03/04 05:09:12;;;;;;;99.68;28.85;;;15.10;64.50;;;;;;5069320;28;20111;-66
2023/03/04 05:11:39;;;;;;;107.60;29.88;;;15.10;64.90;;;;;;5070209;28;20084;-67
2023/03/04 05:14:05;;;;;;;111.72;30.45;;;15.00;65.10;;;;;;5072931;28;20482;-68
2023/03/04 05:16:32;;;;;;;117.80;30.50;;;15.00;64.10;;;;;;5071119;28;20075;-67
2023/03/04 05:18:58;;;;;;;113.40;27.38;;;15.00;65.10;;;;;;5072380;28;20128;-66
2023/03/04 05:21:24;;;;;;;;;;;15.00;64.80;;;;;;5073195;28;20525;-65
2023/03/04 05:23:51;;;;;;;88.07;28.10;;;14.90;65.50;;;;;;5074639;28;19982;-66
2023/03/04 05:26:18;;;;;;;103.03;28.23;;;14.90;65.40;;;;;;5075213;28;20075;-66
2023/03/04 05:28:45;;;;;;;111.82;27.08;;;14.90;65.30;;;;;;5074776;28;20060;-68
2023/03/04 05:31:12;;;;;;;107.78;25.88;;;14.90;66.00;;;;;;5076518;28;20076;-66
2023/03/04 05:33:38;;;;;;;96.20;27.67;;;14.90;66.10;;;;;;5072726;28;20579;-67
2023/03/04 05:36:06;;;;;;;95.63;30.65;;;14.80;65.70;;;;;;5074214;28;20072;-68
2023/03/04 05:38:33;;;;;;;91.63;24.73;;;14.70;65.50;;;;;;5074950;28;20085;-69
2023/03/04 05:41:02;;;;;;;89.85;25.10;;;14.80;66.10;;;;;;5074021;28;20072;-69
2023/03/04 05:43:28;;;;;;;88.32;24.10;;;14.70;66.30;;;;;;5074289;28;20094;-69
2023/03/04 05:45:55;;;;;;;97.90;26.73;;;14.70;66.80;;;;;;5077920;28;20060;-67
2023/03/04 05:48:22;;;;;;;83.38;25.95;;;14.60;66.20;;;;;;5073327;28;20594;-68
2023/03/04 05:51:00;;;;;;;96.40;24.80;;;14.60;66.20;;;;;;5073778;28;20540;-68
2023/03/04 05:53:28;;;;;;;97.82;27.75;;;14.60;66.10;;;;;;5073550;28;20141;-68
2023/03/04 05:55:54;;;;;;;99.68;25.58;;;14.60;66.80;;;;;;5073518;28;20090;-66
2023/03/04 05:58:21;;;;;;;88.63;25.00;;;14.50;66.90;;;;;;5074936;28;20076;-68
2023/03/04 06:00:49;;;;;;;81.90;23.88;;;14.50;67.10;;;;;;5074692;28;20171;-67
2023/03/04 06:03:17;;;;;;;92.63;23.65;;;14.50;67.50;;;;;;5074538;28;20131;-67
2023/03/04 06:05:44;;;;;;;64.95;24.90;;;14.50;67.60;;;;;;5072516;28;20471;-66
2023/03/04 06:08:12;;;;;;;108.85;29.27;;;14.40;68.00;;;;;;5073718;28;20548;-66
2023/03/04 06:10:40;;;;;;;85.63;27.63;;;14.40;68.20;;;;;;5074073;28;20071;-66
2023/03/04 06:13:07;;;;;;;91.57;28.05;;;14.40;68.70;;;;;;5074846;28;20104;-67
2023/03/04 06:15:34;;;;;;;111.82;29.35;;;14.30;68.40;;;;;;5072192;28;20064;-67
2023/03/04 06:18:00;;;;;;;85.32;27.10;;;14.20;68.50;;;;;;5075557;28;20088;-66
2023/03/04 06:20:27;;;;;;;77.38;26.52;;;14.20;68.20;;;;;;5076080;28;20529;-67
2023/03/04 06:22:53;;;;;;;90.07;26.85;;;14.20;68.80;;;;;;5073672;28;20104;-67
2023/03/04 06:25:20;;;;;;;93.50;26.20;;;14.20;69.10;;;;;;5072643;28;20132;-66
2023/03/04 06:27:47;;;;;;;71.07;24.75;;;14.10;69.50;;;;;;5073977;28;20075;-67
2023/03/04 06:30:13;;;;;;;;;;;14.10;70.00;;;;;;5074191;28;20084;-67
2023/03/04 06:32:43;;;;;;;93.75;25.85;;;14.10;70.60;;;;;;5071555;28;19956;-66
2023/03/04 06:35:11;;;;;;;86.85;26.17;;;14.00;70.80;;;;;;5070832;28;20610;-64
2023/03/04 06:37:37;;;;;;;97.28;28.55;;;14.00;71.50;;;;;;5073138;28;20558;-66
2023/03/04 06:40:04;;;;;;;76.85;25.58;;;13.90;70.80;;;;;;5071427;28;20482;-65
2023/03/04 06:42:31;;;;;;;92.10;26.45;;;13.90;71.00;;;;;;5071120;28;20086;-64
2023/03/04 06:44:57;;;;;;;;;;;13.90;70.40;;;;;;5070602;28;20172;-64
2023/03/04 06:47:23;;;;;;;70.63;23.92;;;13.90;69.90;;;;;;5071566;28;19964;-67
2023/03/04 06:49:49;;;;;;;;;;;13.90;70.90;;;;;;5073099;28;20130;-66
2023/03/04 06:52:16;;;;;;;57.33;21.00;;;13.80;71.00;;;;;;5071452;28;20416;-63
2023/03/04 06:54:42;;;;;;;56.08;20.33;;;13.70;71.80;;;;;;5070213;28;20072;-63
2023/03/04 06:57:08;;;;;;;;;;;13.70;72.30;;;;;;5071027;28;20079;-67
2023/03/04 06:59:35;;;;;;;67.80;22.08;;;13.70;72.80;;;;;;5071796;28;19969;-61
2023/03/04 07:02:01;;;;;;;;;;;13.70;72.90;;;;;;5072242;28;20080;-62
2023/03/04 07:04:27;;;;;;;63.58;22.20;;;13.70;73.50;;;;;;5072998;28;19990;-62
2023/03/04 07:06:54;;;;;;;58.63;23.55;;;13.70;72.60;;;;;;5051993;28;20071;-62
2023/03/04 07:09:20;;;;;;;76.55;24.13;;;13.70;71.30;;;;;;5070979;28;20079;-62
2023/03/04 07:11:47;;;;;;;;;;;13.70;70.80;;;;;;5071497;28;20118;-62
2023/03/04 07:14:13;;;;;;;66.65;23.27;;;13.60;72.20;;;;;;5071782;28;20428;-61
2023/03/04 07:16:40;;;;;;;82.60;24.33;;;13.60;72.30;;;;;;5069321;28;20078;-62
2023/03/04 07:19:06;;;;;;;;;;;13.60;72.40;;;;;;5071641;28;20083;-63
2023/03/04 07:21:32;;;;;;;71.03;23.10;;;13.70;73.10;;;;;;5070377;28;20468;-63
2023/03/04 07:23:59;;;;;;;66.40;22.65;;;13.60;72.50;;;;;;5071164;28;20214;-63
2023/03/04 07:26:25;;;;;;;67.93;23.38;;;13.60;72.70;;;;;;5071559;28;20102;-62
2023/03/04 07:28:53;;;;;;;;;;;13.60;73.10;;;;;;5071094;28;20068;-62
2023/03/04 07:31:30;;;;;;;67.68;20.58;;;13.60;72.10;;;;;;5070284;28;20382;-61
2023/03/04 07:33:57;;;;;;;;;;;13.60;73.10;;;;;;5070747;28;20166;-62
2023/03/04 07:36:24;;;;;;;49.65;18.60;;;13.50;73.40;;;;;;5069967;28;20409;-61
2023/03/04 07:38:53;;;;;;;54.65;17.60;;;13.50;74.20;;;;;;5069673;28;20076;-63
2023/03/04 07:41:21;;;;;;;56.95;15.65;;;13.50;74.70;;;;;;5070715;28;20444;-62
2023/03/04 07:43:48;;;;;;;49.10;15.20;;;13.50;74.60;;;;;;5070213;28;20092;-61
2023/03/04 07:46:15;;;;;;;50.97;14.25;;;13.40;74.20;;;;;;5070226;28;20461;-63
2023/03/04 07:48:41;;;;;;;44.50;13.55;;;13.40;74.40;;;;;;5069392;28;20068;-62
2023/03/04 07:51:11;;;;;;;;;;;13.30;74.70;;;;;;5069994;28;20080;-63
2023/03/04 07:53:40;;;;;;;48.47;13.10;;;13.30;74.60;;;;;;5068904;28;20042;-63
2023/03/04 07:56:08;;;;;;;42.42;12.18;;;13.20;73.70;;;;;;5070656;28;20104;-64
2023/03/04 07:58:34;;;;;;;45.17;12.40;;;13.20;73.70;;;;;;5069010;28;20094;-62
2023/03/04 08:01:00;;;;;;;;;;;13.20;74.00;;;;;;5069716;28;20182;-63
2023/03/04 08:03:28;;;;;;;37.85;12.77;;;13.10;73.50;;;;;;5069990;28;19988;-64
2023/03/04 08:05:54;;;;;;;49.00;13.55;;;13.20;74.00;;;;;;5067838;28;20083;-64
2023/03/04 08:08:20;;;;;;;;;;;13.10;74.50;;;;;;5069308;28;20081;-64
2023/03/04 08:10:47;;;;;;;52.92;14.18;;;13.00;74.20;;;;;;5070289;28;20036;-64
2023/03/04 08:13:13;;;;;;;;;;;13.00;74.20;;;;;;5069525;28;20073;-64
2023/03/04 08:15:41;;;;;;;54.92;15.68;;;13.00;74.20;;;;;;5069164;28;19979;-65
2023/03/04 08:18:08;;;;;;;60.65;14.52;;;12.90;74.40;;;;;;5070625;28;20096;-64
2023/03/04 08:20:34;;;;;;;;;;;12.90;74.70;;;;;;5068199;28;20071;-62
2023/03/04 08:23:01;;;;;;;54.47;15.32;;;12.80;75.50;;;;;;5071395;28;20340;-62
2023/03/04 08:25:27;;;;;;;;;;;12.80;75.60;;;;;;5068811;28;20092;-64
2023/03/04 08:27:53;;;;;;;54.30;14.75;;;12.80;75.50;;;;;;5068019;28;19966;-62
2023/03/04 08:30:20;;;;;;;64.57;15.68;;;12.70;76.00;;;;;;5069179;28;20072;-64
2023/03/04 08:32:46;;;;;;;55.30;15.38;;;12.70;76.50;;;;;;5068229;28;20084;-64
2023/03/04 08:35:12;;;;;;;;;;;12.80;76.90;;;;;;5070039;28;20529;-63
2023/03/04 08:37:38;;;;;;;53.47;14.93;;;12.80;77.10;;;;;;5068882;28;19968;-62
2023/03/04 08:40:05;;;;;;;;;;;12.70;77.40;;;;;;5050044;28;20561;-64
2023/03/04 08:42:31;;;;;;;56.28;14.40;;;12.70;77.70;;;;;;5069925;28;20435;-63
2023/03/04 08:44:57;;;;;;;;;;;12.70;77.70;;;;;;5069388;28;20130;-63
2023/03/04 08:47:23;;;;;;;53.15;14.23;;;12.60;76.60;;;;;;5068732;28;20336;-63
2023/03/04 08:49:51;;;;;;;;;;;12.50;76.80;;;;;;5069968;28;20072;-64
2023/03/04 08:52:17;;;;;;;43.92;14.80;;;12.40;77.40;;;;;;5068408;28;20435;-62
2023/03/04 08:54:43;;;;;;;;;;;12.50;78.10;;;;;;5067516;28;20116;-63
2023/03/04 08:57:10;;;;;;;62.20;13.60;;;12.30;78.70;;;;;;5070995;28;19963;-63
2023/03/04 08:59:37;;;;;;;51.85;15.13;;;12.40;79.80;;;;;;5072010;28;20591;-63
2023/03/04 09:02:03;;;;;;;61.38;14.57;;;12.40;78.90;;;;;;5071921;28;20222;-62
2023/03/04 09:04:29;;;;;;;;;;;12.30;79.20;;;;;;5072626;28;20115;-62
2023/03/04 09:07:06;;;;;;;47.60;13.25;;;12.20;79.30;;;;;;5073510;28;19956;-63
2023/03/04 09:09:32;;;;;;;55.08;14.57;;;12.30;80.20;;;;;;5072743;28;20084;-64
2023/03/04 09:11:59;;;;;;;59.05;13.90;;;12.30;81.00;;;;;;5071857;28;20134;-62
2023/03/04 09:14:26;;;;;;;41.50;13.80;;;12.10;80.80;;;;;;5072626;28;20567;-62
2023/03/04 09:16:52;;;;;;;54.13;14.35;;;12.10;81.50;;;;;;5070996;28;20214;-62
2023/03/04 09:19:19;;;;;;;56.03;13.38;;;12.20;81.50;;;;;;5071075;28;20076;-63
2023/03/04 09:21:46;;;;;;;58.25;14.95;;;12.10;81.40;;;;;;5071730;28;20155;-63
2023/03/04 09:24:12;;;;;;;;;;;12.20;82.00;;;;;;5075545;28;20092;-64
2023/03/04 09:26:38;;;;;;;50.33;14.05;;;12.20;81.60;;;;;;5073870;28;20064;-62
2023/03/04 09:29:07;;;;;;;;;;;12.20;81.50;;;;;;5074309;28;20072;-63
2023/03/04 09:31:34;;;;;;;62.47;15.38;;;12.10;81.70;;;;;;5051313;28;20434;-63
2023/03/04 09:34:04;;;;;;;56.65;15.73;;;12.00;81.20;;;;;;5073761;28;20541;-62
2023/03/04 09:36:30;;;;;;;51.78;16.10;;;12.00;81.50;;;;;;5071328;28;20088;-63
2023/03/04 09:39:00;;;;;;;;;;;11.90;81.10;;;;;;5074102;28;20081;-62
2023/03/04 09:41:49;;;;;;;61.35;16.40;;;11.90;80.80;;;;;;5072128;28;20414;-63
2023/03/04 09:44:39;;;;;;;61.63;17.65;;;11.90;80.90;;;;;;5070919;28;20174;-63
2023/03/04 09:47:15;;;;;;;53.03;16.63;;;12.00;81.10;;;;;;5071544;28;20109;-64
2023/03/04 09:49:47;;;;;;;53.78;16.27;;;11.90;82.00;;;;;;5072207;28;20076;-63
2023/03/04 09:52:20;;;;;;;49.78;17.02;;;11.90;81.60;;;;;;5071342;28;20125;-64
2023/03/04 09:55:04;;;;;;;64.80;17.35;;;11.90;82.00;;;;;;5072278;28;20168;-64
2023/03/04 09:57:59;;;;;;;72.40;18.27;;;11.80;82.90;;;;;;5072489;28;20081;-62
2023/03/04 10:00:41;;;;;;;61.28;19.52;;;11.80;82.30;;;;;;5071649;28;20152;-62
2023/03/04 10:03:18;;;;;;;60.50;19.48;;;11.70;81.80;;;;;;5072506;28;20190;-63
2023/03/04 10:05:53;;;;;;;67.57;20.25;;;11.80;82.30;;;;;;5069320;28;20072;-64
2023/03/04 10:08:44;;;;;;;67.53;20.50;;;11.70;83.20;;;;;;5072271;28;20174;-64
2023/03/04 10:11:30;;;;;;;60.42;18.67;;;11.70;83.80;;;;;;5070548;28;20652;-62
2023/03/04 10:14:51;;;;;;;56.40;20.13;;;11.70;84.10;;;;;;5071191;28;20415;-63
2023/03/04 10:17:31;;;;;;;70.38;22.40;;;11.70;84.40;;;;;;5071362;28;20081;-64
2023/03/04 10:20:19;;;;;;;64.13;20.95;;;11.60;84.60;;;;;;5070292;28;20076;-65
2023/03/04 10:22:48;;;;;;;63.20;21.63;;;11.50;84.40;;;;;;5071075;28;20533;-64
2023/03/04 10:25:18;;;;;;;61.92;21.30;;;11.50;84.90;;;;;;5072686;28;20557;-65
2023/03/04 10:28:13;;;;;;;61.97;20.65;;;11.50;85.60;;;;;;5071417;28;20096;-64
2023/03/04 10:30:48;;;;;;;59.88;20.02;;;11.50;84.80;;;;;;5060940;28;20160;-64
2023/03/04 10:33:34;;;;;;;76.45;22.00;;;11.40;83.90;;;;;;5070234;28;20079;-63
2023/03/04 10:36:29;;;;;;;66.88;22.15;;;11.30;83.60;;;;;;5069165;28;20529;-64
2023/03/04 10:39:00;;;;;;;84.22;26.42;;;11.30;84.30;;;;;;5070977;28;20084;-63
2023/03/04 10:41:28;;;;;;;77.88;28.42;;;11.30;84.70;;;;;;5069670;28;20152;-62
2023/03/04 10:44:22;;;;;;;94.15;28.45;;;11.20;84.20;;;;;;5070448;28;20092;-65
2023/03/04 10:46:49;;;;;;;91.13;27.33;;;11.30;84.60;;;;;;5070544;28;20091;-63
2023/03/04 10:49:18;;;;;;;98.07;26.98;;;11.20;85.30;;;;;;5070765;28;20152;-64
2023/03/04 10:52:12;;;;;;;83.22;28.75;;;11.10;85.50;;;;;;5069311;28;20077;-62
2023/03/04 10:54:53;;;;;;;83.38;29.50;;;11.10;85.80;;;;;;5055586;28;20084;-64
2023/03/04 10:57:33;;;;;;;67.53;27.73;;;11.20;86.40;;;;;;5071142;28;20101;-64
2023/03/04 11:00:25;;;;;;;63.83;27.85;;;11.20;86.30;;;;;;5070575;28;20080;-63
2023/03/04 11:02:51;;;;;;;67.45;27.95;;;11.10;87.40;;;;;;5059354;28;20106;-62
2023/03/04 11:05:21;;;;;;;65.13;26.60;;;11.00;87.90;;;;;;5070793;28;20104;-63
2023/03/04 11:07:53;;;;;;;78.13;29.58;;;10.90;87.90;;;;;;5070824;28;20090;-63
2023/03/04 11:10:27;;;;;;;62.88;26.83;;;10.80;88.40;;;;;;5069426;28;20089;-63
2023/03/04 11:13:24;;;;;;;57.28;25.80;;;10.90;89.30;;;;;;5070690;28;20096;-63
2023/03/04 11:15:56;;;;;;;56.78;25.75;;;11.00;90.10;;;;;;5053927;28;20558;-63
2023/03/04 11:18:57;;;;;;;55.10;24.80;;;11.00;90.20;;;;;;5070359;28;20099;-63
2023/03/04 11:21:27;;;;;;;62.78;24.42;;;11.00;90.20;;;;;;4986117;28;20118;-63
2023/03/04 11:23:54;;;;;;;62.35;22.98;;;10.90;90.70;;;;;;4986869;28;20093;-62
2023/03/04 11:26:27;;;;;;;;;;;10.80;90.70;;;;;;4987356;28;21421;-63
2023/03/04 11:29:05;;;;;;;44.83;19.98;;;10.90;90.90;;;;;;4984294;28;19978;-62
2023/03/04 11:32:09;;;;;;;51.15;19.65;;;10.70;91.10;;;;;;4985872;28;20086;-63
2023/03/04 11:34:42;;;;;;;37.90;16.42;;;10.70;91.70;;;;;;4983541;28;20118;-62
2023/03/04 11:37:22;;;;;;;42.05;17.45;;;10.60;91.80;;;;;;4985699;28;20086;-64
2023/03/04 11:40:06;;;;;;;47.35;18.27;;;10.60;92.10;;;;;;4985856;28;20128;-63
2023/03/04 11:43:14;;;;;;;40.22;17.83;;;10.50;92.40;;;;;;4985949;28;20640;-63
2023/03/04 11:45:58;;;;;;;47.85;17.85;;;10.40;92.50;;;;;;4984393;28;20165;-63
2023/03/04 11:48:46;;;;;;;44.10;17.30;;;10.40;92.80;;;;;;4985824;28;20077;-64
2023/03/04 11:51:28;;;;;;;40.17;16.05;;;10.30;93.00;;;;;;4985576;28;20095;-64
2023/03/04 11:54:15;;;;;;;41.05;15.55;;;10.40;93.30;;;;;;4986209;28;20414;-63
2023/03/04 11:56:43;;;;;;;;;;;10.40;93.50;;;;;;4986875;28;20074;-62
2023/03/04 11:59:48;;;;;;;28.85;14.30;;;10.30;93.60;;;;;;5065463;28;19956;-63
2023/03/04 12:02:22;;;;;;;36.90;15.48;;;10.30;94.00;;;;;;5053562;28;20080;-62
2023/03/04 12:05:07;;;;;;;32.05;14.57;;;10.30;94.10;;;;;;5069232;28;20110;-63
2023/03/04 12:07:51;;;;;;;39.40;14.63;;;10.30;94.50;;;;;;5069220;28;20079;-63
2023/03/04 12:10:41;;;;;;;29.23;15.75;;;10.20;94.60;;;;;;5068663;28;20091;-64
2023/03/04 12:13:40;;;;;;;44.00;23.80;;;10.20;95.30;;;;;;5068823;28;20155;-62
2023/03/04 12:16:19;;;;;;;44.60;26.75;;;10.40;95.20;;;;;;5068788;28;20072;-63
2023/03/04 12:19:23;;;;;;;43.60;25.33;;;10.40;94.80;;;;;;5068677;28;20089;-63
2023/03/04 12:22:36;;;;;;;39.15;21.08;;;10.40;95.00;;;;;;4995804;28;20089;-64
2023/03/04 12:25:25;;;;;;;46.05;16.60;;;10.40;95.00;;;;;;4983463;28;20094;-64
2023/03/04 12:28:08;;;;;;;28.73;13.98;;;10.40;95.00;;;;;;4986173;28;20078;-64
2023/03/04 12:31:02;;;;;;;27.40;14.45;;;10.30;95.00;;;;;;4980383;28;20083;-62
2023/03/04 12:34:04;;;;;;;35.65;14.57;;;10.20;95.30;;;;;;4988128;28;20098;-63
2023/03/04 12:36:48;;;;;;;28.17;14.45;;;10.10;96.00;;;;;;4982652;28;20148;-64
2023/03/04 12:39:37;;;;;;;39.65;15.45;;;10.10;96.30;;;;;;4988887;28;20078;-63
2023/03/04 12:42:24;;;;;;;33.47;13.82;;;10.00;96.40;;;;;;4987989;28;20089;-63
2023/03/04 12:45:01;;;;;;;26.52;13.65;;;10.10;96.60;;;;;;4988184;28;20190;-62
2023/03/04 12:47:27;;;;;;;;;;;10.10;96.50;;;;;;4989909;28;20071;-63
2023/03/04 12:50:14;;;;;;;35.25;14.25;;;10.10;96.50;;;;;;4988679;28;19981;-62
2023/03/04 12:52:47;;;;;;;;;;;10.20;96.50;;;;;;4988254;28;20563;-62
2023/03/04 12:55:34;;;;;;;34.10;14.23;;;10.10;96.40;;;;;;5016737;28;19963;-61
2023/03/04 12:58:01;;;;;;;38.30;15.13;;;10.10;96.50;;;;;;5073774;28;20096;-61